createdAt,value
2023-04-20T00:04:09.727Z,3.45
2023-04-20T00:09:15.384Z,4.05
2023-04-20T00:14:17.535Z,3.60
2023-04-20T00:19:19.513Z,3.47
2023-04-20T00:24:21.970Z,4.53
2023-04-20T00:29:23.813Z,6.20
2023-04-20T00:34:25.872Z,5.82
2023-04-20T00:39:28.030Z,4.43
2023-04-20T00:44:29.777Z,3.92
2023-04-20T00:49:32.411Z,3.83
2023-04-20T00:54:36.016Z,4.03
2023-04-20T00:59:38.087Z,4.38
2023-04-20T01:04:40.204Z,6.90
2023-04-20T01:09:42.981Z,4.32
2023-04-20T01:14:44.879Z,4.00
2023-04-20T01:19:47.228Z,4.10
2023-04-20T01:24:49.023Z,5.90
2023-04-20T01:29:50.884Z,4.93
2023-04-20T01:34:52.752Z,4.47
2023-04-20T01:39:54.803Z,5.35
2023-04-20T01:44:57.061Z,5.35
2023-04-20T01:49:59.269Z,5.50
2023-04-20T01:55:01.067Z,4.88
2023-04-20T02:00:04.310Z,4.97
2023-04-20T02:05:06.415Z,5.25
2023-04-20T02:10:08.445Z,4.78
2023-04-20T02:15:10.949Z,4.75
2023-04-20T02:20:12.822Z,4.82
2023-04-20T02:25:15.356Z,4.22
2023-04-20T02:30:17.164Z,4.60
2023-04-20T02:35:19.483Z,4.85
2023-04-20T02:40:21.321Z,4.88
2023-04-20T02:45:23.207Z,4.65
2023-04-20T02:50:24.964Z,5.10
2023-04-20T02:55:27.561Z,4.15
2023-04-20T03:00:29.286Z,4.90
2023-04-20T03:05:31.403Z,7.07
2023-04-20T03:10:33.281Z,6.85
2023-04-20T03:15:35.147Z,5.88
2023-04-20T03:20:37.671Z,6.38
2023-04-20T03:25:39.722Z,5.65
2023-04-20T03:30:41.646Z,5.53
2023-04-20T03:35:43.498Z,6.05
2023-04-20T03:40:46.034Z,6.10
2023-04-20T03:45:47.886Z,6.38
2023-04-20T03:50:49.746Z,6.35
2023-04-20T03:55:51.549Z,6.00
2023-04-20T04:00:53.661Z,7.80
2023-04-20T04:05:55.460Z,6.97
2023-04-20T04:10:57.393Z,6.40
2023-04-20T04:15:59.249Z,6.47
2023-04-20T04:21:01.362Z,6.10
2023-04-20T04:26:05.301Z,7.88
2023-04-20T04:31:10.060Z,7.32
2023-04-20T04:36:12.244Z,7.07
2023-04-20T04:41:15.065Z,7.65
2023-04-20T04:46:17.883Z,7.78
2023-04-20T04:51:19.801Z,8.18
2023-04-20T04:56:23.476Z,7.32
2023-04-20T05:01:25.367Z,6.05
2023-04-20T05:06:27.298Z,6.85
2023-04-20T05:11:30.534Z,6.20
2023-04-20T05:16:32.535Z,6.32
2023-04-20T05:21:34.372Z,6.95
2023-04-20T05:26:36.392Z,13.07
2023-04-20T05:31:38.393Z,12.90
2023-04-20T05:36:41.539Z,10.15
2023-04-20T05:41:43.546Z,9.02
2023-04-20T05:46:45.305Z,6.90
2023-04-20T05:51:46.961Z,8.90
2023-04-20T05:56:49.052Z,9.73
2023-04-20T06:01:51.182Z,7.07
2023-04-20T06:06:53.769Z,7.18
2023-04-20T06:11:56.070Z,6.57
2023-04-20T06:16:57.809Z,11.45
2023-04-20T06:22:00.945Z,8.35
2023-04-20T06:27:03.751Z,8.18
2023-04-20T06:32:06.700Z,7.70
2023-04-20T06:37:08.514Z,6.90
2023-04-20T06:42:10.332Z,6.68
2023-04-20T06:47:12.400Z,6.18
2023-04-20T06:52:14.409Z,8.15
2023-04-20T06:57:17.509Z,8.13
2023-04-20T07:02:19.477Z,6.38
2023-04-20T07:07:21.416Z,6.80
2023-04-20T07:12:23.648Z,6.68
2023-04-20T07:17:28.240Z,7.03
2023-04-20T07:22:30.212Z,6.53
2023-04-20T07:27:36.680Z,6.93
2023-04-20T07:32:39.545Z,6.85
2023-04-20T07:37:41.533Z,6.55
2023-04-20T07:42:43.340Z,6.30
2023-04-20T07:47:47.381Z,6.18
2023-04-20T07:52:49.276Z,6.35
2023-04-20T07:57:51.728Z,6.13
2023-04-20T08:02:54.073Z,6.20
2023-04-20T08:07:56.090Z,6.50
2023-04-20T08:12:58.988Z,6.50
2023-04-20T08:18:00.878Z,6.75
2023-04-20T08:23:02.680Z,6.20
2023-04-20T08:28:06.218Z,6.65
2023-04-20T08:33:10.627Z,5.90
2023-04-20T08:38:15.662Z,6.97
2023-04-20T08:43:22.118Z,6.50
2023-04-20T08:48:26.776Z,6.68
2023-04-20T08:53:28.585Z,6.65
2023-04-20T08:58:34.868Z,7.40
2023-04-20T09:03:39.283Z,5.82
2023-04-20T09:08:42.882Z,5.97
2023-04-20T09:13:44.903Z,5.97
2023-04-20T09:18:54.325Z,6.30
2023-04-20T09:23:57.181Z,4.85
2023-04-20T09:28:58.963Z,5.88
2023-04-20T09:34:02.746Z,6.30
2023-04-20T09:39:11.473Z,5.68
2023-04-20T09:44:14.374Z,4.50
2023-04-20T09:49:16.446Z,6.07
2023-04-20T09:54:19.347Z,6.30
2023-04-20T09:59:22.448Z,6.18
2023-04-20T10:04:24.845Z,5.75
2023-04-20T10:09:27.039Z,5.97
2023-04-20T10:14:29.154Z,5.68
2023-04-20T10:19:45.096Z,6.20
2023-04-20T10:24:47.075Z,5.53
2023-04-20T10:29:49.390Z,6.07
2023-04-20T10:35:05.530Z,5.80
2023-04-20T10:40:08.287Z,5.53
2023-04-20T10:45:11.235Z,5.38
2023-04-20T10:50:18.193Z,4.85
2023-04-20T10:55:25.374Z,5.60
2023-04-20T11:00:31.515Z,5.03
2023-04-20T11:05:33.358Z,5.10
2023-04-20T11:10:40.529Z,6.57
2023-04-20T11:15:42.987Z,5.57
2023-04-20T11:20:52.174Z,5.00
2023-04-20T11:25:56.500Z,4.78
2023-04-20T11:30:58.534Z,4.43
2023-04-20T11:36:02.336Z,5.18
2023-04-20T11:41:08.165Z,4.68
2023-04-20T11:46:15.351Z,4.80
2023-04-20T11:51:17.252Z,5.15
2023-04-20T11:56:19.034Z,5.00
2023-04-20T12:01:21.427Z,4.50
2023-04-20T12:06:23.551Z,6.43
2023-04-20T12:11:25.488Z,4.57
2023-04-20T12:16:27.573Z,4.10
2023-04-20T12:21:29.825Z,5.00
2023-04-20T12:26:38.334Z,5.10
2023-04-20T12:31:41.140Z,4.65
2023-04-20T12:36:43.567Z,4.75
2023-04-20T12:41:45.634Z,4.60
2023-04-20T12:46:47.662Z,5.03
2023-04-20T12:51:50.346Z,4.95
2023-04-20T12:56:52.449Z,4.80
2023-04-20T13:01:54.945Z,4.90
2023-04-20T13:06:56.859Z,4.85
2023-04-20T13:11:59.670Z,5.70
2023-04-20T13:17:02.158Z,4.75
2023-04-20T13:22:07.577Z,4.47
2023-04-20T13:27:09.804Z,4.72
2023-04-20T13:32:11.797Z,4.68
2023-04-20T13:37:14.028Z,4.60
2023-04-20T13:42:15.773Z,5.03
2023-04-20T13:47:19.594Z,5.32
2023-04-20T13:52:21.734Z,5.60
2023-04-20T13:57:23.624Z,5.90
2023-04-20T14:02:25.526Z,4.80
2023-04-20T14:07:27.789Z,4.95
2023-04-20T14:12:29.867Z,5.13
2023-04-20T14:17:31.772Z,4.90
2023-04-20T14:22:34.719Z,5.18
2023-04-20T14:27:37.001Z,4.95
2023-04-20T14:32:39.107Z,5.38
2023-04-20T14:37:41.454Z,4.50
2023-04-20T14:42:43.481Z,5.15
2023-04-20T14:47:45.388Z,5.38
2023-04-20T14:52:47.456Z,4.97
2023-04-20T14:57:50.812Z,6.25
2023-04-20T15:02:53.791Z,5.47
2023-04-20T15:07:57.752Z,5.72
2023-04-20T15:12:59.727Z,5.22
2023-04-20T15:18:02.373Z,5.00
2023-04-20T15:23:06.005Z,6.38
2023-04-20T15:28:07.969Z,5.90
2023-04-20T15:33:10.255Z,5.20
2023-04-20T15:38:12.466Z,6.53
2023-04-20T15:43:14.291Z,5.22
2023-04-20T15:48:17.423Z,5.35
2023-04-20T15:53:19.689Z,5.80
2023-04-20T15:58:21.469Z,6.60
2023-04-20T16:03:23.391Z,6.57
2023-04-20T16:08:25.172Z,6.00
2023-04-20T16:13:27.060Z,7.32
2023-04-20T16:18:30.237Z,7.72
2023-04-20T16:23:32.016Z,13.88
2023-04-20T16:28:34.000Z,9.70
2023-04-20T16:33:37.777Z,9.18
2023-04-20T16:38:39.593Z,9.50
2023-04-20T16:43:41.977Z,10.60
2023-04-20T16:48:44.200Z,11.35
2023-04-20T16:53:46.607Z,10.77
2023-04-20T16:58:48.539Z,12.07
2023-04-20T17:03:51.629Z,12.85
2023-04-20T17:08:55.515Z,12.85
2023-04-20T17:13:57.365Z,17.85
2023-04-20T17:18:59.676Z,15.13
2023-04-20T17:24:01.461Z,14.88
2023-04-20T17:29:04.765Z,16.85
2023-04-20T17:34:07.251Z,10.63
2023-04-20T17:39:09.800Z,10.35
2023-04-20T17:44:12.269Z,10.82
2023-04-20T17:49:14.170Z,10.70
2023-04-20T17:54:16.017Z,12.80
2023-04-20T17:59:18.033Z,12.98
2023-04-20T18:04:20.286Z,12.02
2023-04-20T18:09:22.760Z,11.60
2023-04-20T18:14:24.589Z,11.20
2023-04-20T18:19:27.014Z,11.25
2023-04-20T18:24:29.141Z,10.93
2023-04-20T18:29:31.508Z,11.98
2023-04-20T18:34:33.489Z,12.88
2023-04-20T18:39:35.328Z,12.13
2023-04-20T18:44:37.613Z,12.43
2023-04-20T18:49:39.452Z,12.48
2023-04-20T18:54:41.307Z,11.90
2023-04-20T18:59:43.011Z,11.98
2023-04-20T19:04:44.770Z,16.63
2023-04-20T19:09:46.587Z,11.93
2023-04-20T19:14:49.485Z,12.98
2023-04-20T19:19:52.654Z,10.55
2023-04-20T19:24:54.392Z,13.82
2023-04-20T19:29:56.411Z,10.90
2023-04-20T19:34:59.797Z,9.45
2023-04-20T19:40:01.610Z,10.45
2023-04-20T19:45:03.987Z,9.93
2023-04-20T19:50:07.507Z,10.95
2023-04-20T19:55:10.186Z,14.60
2023-04-20T20:00:12.250Z,11.02
2023-04-20T20:05:14.292Z,11.20
2023-04-20T20:10:16.006Z,11.90
2023-04-20T20:15:17.967Z,10.95
2023-04-20T20:20:20.220Z,10.85
2023-04-20T20:25:22.127Z,12.00
2023-04-20T20:30:23.953Z,11.48
2023-04-20T20:35:31.454Z,12.07
2023-04-20T20:40:34.713Z,12.55
2023-04-20T20:45:37.528Z,11.98
2023-04-20T20:50:39.403Z,11.32
2023-04-20T20:55:41.365Z,11.45
2023-04-20T21:00:44.353Z,20.52
2023-04-20T21:05:46.485Z,14.82
2023-04-20T21:10:48.274Z,31.25
2023-04-20T21:15:50.003Z,23.85
2023-04-20T21:20:52.099Z,10.55
2023-04-20T21:25:54.163Z,10.10
2023-04-20T21:30:56.300Z,10.85
2023-04-20T21:35:59.106Z,12.48
2023-04-20T21:41:01.175Z,12.30
2023-04-20T21:46:03.149Z,11.35
2023-04-20T21:51:04.991Z,12.52
2023-04-20T21:56:08.233Z,14.10
2023-04-20T22:01:10.466Z,12.10
2023-04-20T22:06:12.504Z,12.00
2023-04-20T22:11:14.506Z,12.15
2023-04-20T22:16:18.055Z,14.32
2023-04-20T22:21:19.993Z,13.73
2023-04-20T22:26:22.503Z,12.60
2023-04-20T22:31:25.261Z,12.50
2023-04-20T22:36:28.340Z,12.80
2023-04-20T22:41:31.382Z,12.93
2023-04-20T22:46:33.531Z,12.07
2023-04-20T22:51:35.385Z,12.30
2023-04-20T22:56:37.339Z,11.75
2023-04-20T23:01:39.148Z,11.93
2023-04-20T23:06:44.095Z,13.50
2023-04-20T23:11:47.528Z,14.05
2023-04-20T23:16:50.074Z,13.07
2023-04-20T23:21:51.952Z,14.52
2023-04-20T23:26:53.833Z,12.52
2023-04-20T23:31:55.902Z,15.48
2023-04-20T23:36:57.800Z,15.02
2023-04-20T23:41:59.581Z,14.80
2023-04-20T23:47:01.710Z,12.73
2023-04-20T23:52:03.881Z,14.90
2023-04-20T23:57:05.688Z,15.98
